sensor_id;sensor_type;location;lat;lon;timestamp;temperature;humidity
52513;DHT22;38422;53.172;6.974;2023-08-17T00:02:00;19.30;99.90
52513;DHT22;38422;53.172;6.974;2023-08-17T00:04:26;19.20;99.90
52513;DHT22;38422;53.172;6.974;2023-08-17T00:06:52;19.20;99.90
52513;DHT22;38422;53.172;6.974;2023-08-17T00:09:17;19.10;99.90
52513;DHT22;38422;53.172;6.974;2023-08-17T00:11:43;19.20;99.90
52513;DHT22;38422;53.172;6.974;2023-08-17T00:14:09;19.10;99.90
52513;DHT22;38422;53.172;6.974;2023-08-17T00:16:35;19.10;99.90
52513;DHT22;38422;53.172;6.974;2023-08-17T00:19:01;19.10;99.90
52513;DHT22;38422;53.172;6.974;2023-08-17T00:21:27;19.10;99.90
52513;DHT22;38422;53.172;6.974;2023-08-17T00:23:53;19.10;99.90
52513;DHT22;38422;53.172;6.974;2023-08-17T00:26:19;19.10;99.90
52513;DHT22;38422;53.172;6.974;2023-08-17T00:28:45;19.10;99.90
52513;DHT22;38422;53.172;6.974;2023-08-17T00:31:11;19.00;99.90
52513;DHT22;38422;53.172;6.974;2023-08-17T00:33:37;19.00;99.90
52513;DHT22;38422;53.172;6.974;2023-08-17T00:36:03;19.00;99.90
52513;DHT22;38422;53.172;6.974;2023-08-17T00:38:28;19.00;99.90
52513;DHT22;38422;53.172;6.974;2023-08-17T00:40:54;19.00;99.90
52513;DHT22;38422;53.172;6.974;2023-08-17T00:43:21;18.90;99.90
52513;DHT22;38422;53.172;6.974;2023-08-17T00:45:46;18.90;99.90
52513;DHT22;38422;53.172;6.974;2023-08-17T00:48:12;18.90;99.90
52513;DHT22;38422;53.172;6.974;2023-08-17T00:50:39;18.90;99.90
52513;DHT22;38422;53.172;6.974;2023-08-17T00:53:06;18.90;99.90
52513;DHT22;38422;53.172;6.974;2023-08-17T00:55:33;18.90;99.90
52513;DHT22;38422;53.172;6.974;2023-08-17T00:57:59;18.90;99.90
52513;DHT22;38422;53.172;6.974;2023-08-17T01:00:25;18.90;99.90
52513;DHT22;38422;53.172;6.974;2023-08-17T01:02:53;18.90;99.90
52513;DHT22;38422;53.172;6.974;2023-08-17T01:05:19;18.80;99.90
52513;DHT22;38422;53.172;6.974;2023-08-17T01:07:44;18.80;99.90
52513;DHT22;38422;53.172;6.974;2023-08-17T01:10:10;18.80;99.90
52513;DHT22;38422;53.172;6.974;2023-08-17T01:12:46;18.80;99.90
52513;DHT22;38422;53.172;6.974;2023-08-17T01:15:36;18.90;99.90
52513;DHT22;38422;53.172;6.974;2023-08-17T01:18:23;18.80;99.90
52513;DHT22;38422;53.172;6.974;2023-08-17T01:20:50;18.80;99.90
52513;DHT22;38422;53.172;6.974;2023-08-17T01:23:16;18.70;99.90
52513;DHT22;38422;53.172;6.974;2023-08-17T01:25:41;18.70;99.90
52513;DHT22;38422;53.172;6.974;2023-08-17T01:28:07;18.70;99.90
52513;DHT22;38422;53.172;6.974;2023-08-17T01:30:43;18.70;99.90
52513;DHT22;38422;53.172;6.974;2023-08-17T01:33:11;18.70;99.90
52513;DHT22;38422;53.172;6.974;2023-08-17T01:35:54;18.70;99.90
52513;DHT22;38422;53.172;6.974;2023-08-17T01:38:25;18.70;99.90
52513;DHT22;38422;53.172;6.974;2023-08-17T01:40:52;18.60;99.90
52513;DHT22;38422;53.172;6.974;2023-08-17T01:43:22;18.60;99.90
52513;DHT22;38422;53.172;6.974;2023-08-17T01:45:48;18.60;99.90
52513;DHT22;38422;53.172;6.974;2023-08-17T01:48:14;18.60;99.90
52513;DHT22;38422;53.172;6.974;2023-08-17T01:50:39;18.60;99.90
52513;DHT22;38422;53.172;6.974;2023-08-17T01:53:05;18.60;99.90
52513;DHT22;38422;53.172;6.974;2023-08-17T01:55:31;18.50;99.90
52513;DHT22;38422;53.172;6.974;2023-08-17T01:57:56;18.50;99.90
52513;DHT22;38422;53.172;6.974;2023-08-17T02:00:22;18.50;99.90
52513;DHT22;38422;53.172;6.974;2023-08-17T02:02:48;18.50;99.90
52513;DHT22;38422;53.172;6.974;2023-08-17T02:05:13;18.50;99.90
52513;DHT22;38422;53.172;6.974;2023-08-17T02:07:39;18.40;99.90
52513;DHT22;38422;53.172;6.974;2023-08-17T02:10:05;18.40;99.90
52513;DHT22;38422;53.172;6.974;2023-08-17T02:12:31;18.40;99.90
52513;DHT22;38422;53.172;6.974;2023-08-17T02:14:57;18.40;99.90
52513;DHT22;38422;53.172;6.974;2023-08-17T02:17:22;18.40;99.90
52513;DHT22;38422;53.172;6.974;2023-08-17T02:19:48;18.40;99.90
52513;DHT22;38422;53.172;6.974;2023-08-17T02:22:14;18.30;99.90
52513;DHT22;38422;53.172;6.974;2023-08-17T02:24:40;18.30;99.90
52513;DHT22;38422;53.172;6.974;2023-08-17T02:27:06;18.30;99.90
52513;DHT22;38422;53.172;6.974;2023-08-17T02:29:32;18.30;99.90
52513;DHT22;38422;53.172;6.974;2023-08-17T02:31:58;18.30;99.90
52513;DHT22;38422;53.172;6.974;2023-08-17T02:34:24;18.30;99.90
52513;DHT22;38422;53.172;6.974;2023-08-17T02:36:49;18.20;99.90
52513;DHT22;38422;53.172;6.974;2023-08-17T02:39:15;18.30;99.90
52513;DHT22;38422;53.172;6.974;2023-08-17T02:41:41;18.30;99.90
52513;DHT22;38422;53.172;6.974;2023-08-17T02:44:06;18.30;99.90
52513;DHT22;38422;53.172;6.974;2023-08-17T02:46:32;18.20;99.90
52513;DHT22;38422;53.172;6.974;2023-08-17T02:48:58;18.20;99.90
52513;DHT22;38422;53.172;6.974;2023-08-17T02:51:23;18.20;99.90
52513;DHT22;38422;53.172;6.974;2023-08-17T02:53:49;18.20;99.90
52513;DHT22;38422;53.172;6.974;2023-08-17T02:56:15;18.30;99.90
52513;DHT22;38422;53.172;6.974;2023-08-17T02:58:40;18.20;99.90
52513;DHT22;38422;53.172;6.974;2023-08-17T03:01:07;18.20;99.90
52513;DHT22;38422;53.172;6.974;2023-08-17T03:03:34;18.20;99.90
52513;DHT22;38422;53.172;6.974;2023-08-17T03:06:00;18.10;99.90
52513;DHT22;38422;53.172;6.974;2023-08-17T03:08:26;18.10;99.90
52513;DHT22;38422;53.172;6.974;2023-08-17T03:10:52;18.10;99.90
52513;DHT22;38422;53.172;6.974;2023-08-17T03:13:17;18.10;99.90
52513;DHT22;38422;53.172;6.974;2023-08-17T03:15:43;18.10;99.90
52513;DHT22;38422;53.172;6.974;2023-08-17T03:18:09;18.00;99.90
52513;DHT22;38422;53.172;6.974;2023-08-17T03:20:35;18.00;99.90
52513;DHT22;38422;53.172;6.974;2023-08-17T03:23:00;18.00;99.90
52513;DHT22;38422;53.172;6.974;2023-08-17T03:25:26;18.00;99.90
52513;DHT22;38422;53.172;6.974;2023-08-17T03:27:52;17.90;99.90
52513;DHT22;38422;53.172;6.974;2023-08-17T03:30:17;17.90;99.90
52513;DHT22;38422;53.172;6.974;2023-08-17T03:32:43;17.90;99.90
52513;DHT22;38422;53.172;6.974;2023-08-17T03:35:09;17.90;99.90
52513;DHT22;38422;53.172;6.974;2023-08-17T03:37:34;17.90;99.90
52513;DHT22;38422;53.172;6.974;2023-08-17T03:40:00;17.90;99.90
52513;DHT22;38422;53.172;6.974;2023-08-17T03:42:26;17.90;99.90
52513;DHT22;38422;53.172;6.974;2023-08-17T03:44:52;17.90;99.90
52513;DHT22;38422;53.172;6.974;2023-08-17T03:47:18;17.90;99.90
52513;DHT22;38422;53.172;6.974;2023-08-17T03:49:44;17.90;99.90
52513;DHT22;38422;53.172;6.974;2023-08-17T03:52:10;17.90;99.90
52513;DHT22;38422;53.172;6.974;2023-08-17T03:54:36;17.90;99.90
52513;DHT22;38422;53.172;6.974;2023-08-17T03:57:02;17.80;99.90
52513;DHT22;38422;53.172;6.974;2023-08-17T03:59:28;17.80;99.90
52513;DHT22;38422;53.172;6.974;2023-08-17T04:01:53;17.80;99.90
52513;DHT22;38422;53.172;6.974;2023-08-17T04:04:19;17.70;99.90
52513;DHT22;38422;53.172;6.974;2023-08-17T04:06:45;17.70;99.90
52513;DHT22;38422;53.172;6.974;2023-08-17T04:09:10;17.70;99.90
52513;DHT22;38422;53.172;6.974;2023-08-17T04:11:36;17.70;99.90
52513;DHT22;38422;53.172;6.974;2023-08-17T04:14:03;17.70;99.90
52513;DHT22;38422;53.172;6.974;2023-08-17T04:16:29;17.60;99.90
52513;DHT22;38422;53.172;6.974;2023-08-17T04:18:54;17.60;99.90
52513;DHT22;38422;53.172;6.974;2023-08-17T04:21:20;17.60;99.90
52513;DHT22;38422;53.172;6.974;2023-08-17T04:23:46;17.60;99.90
52513;DHT22;38422;53.172;6.974;2023-08-17T04:26:12;17.60;99.90
52513;DHT22;38422;53.172;6.974;2023-08-17T04:28:38;17.50;99.90
52513;DHT22;38422;53.172;6.974;2023-08-17T04:31:03;17.50;99.90
52513;DHT22;38422;53.172;6.974;2023-08-17T04:33:29;17.50;99.90
52513;DHT22;38422;53.172;6.974;2023-08-17T04:35:55;17.50;99.90
52513;DHT22;38422;53.172;6.974;2023-08-17T04:38:21;17.40;99.90
52513;DHT22;38422;53.172;6.974;2023-08-17T04:40:47;17.40;99.90
52513;DHT22;38422;53.172;6.974;2023-08-17T04:43:13;17.40;99.90
52513;DHT22;38422;53.172;6.974;2023-08-17T04:45:38;17.40;99.90
52513;DHT22;38422;53.172;6.974;2023-08-17T04:48:05;17.40;99.90
52513;DHT22;38422;53.172;6.974;2023-08-17T04:50:31;17.40;99.90
52513;DHT22;38422;53.172;6.974;2023-08-17T04:52:57;17.40;99.90
52513;DHT22;38422;53.172;6.974;2023-08-17T04:55:23;17.40;99.90
52513;DHT22;38422;53.172;6.974;2023-08-17T04:57:49;17.30;99.90
52513;DHT22;38422;53.172;6.974;2023-08-17T05:00:15;17.30;99.90
52513;DHT22;38422;53.172;6.974;2023-08-17T05:02:41;17.30;99.90
52513;DHT22;38422;53.172;6.974;2023-08-17T05:05:10;17.30;99.90
52513;DHT22;38422;53.172;6.974;2023-08-17T05:07:36;17.30;99.90
52513;DHT22;38422;53.172;6.974;2023-08-17T05:10:02;17.30;99.90
52513;DHT22;38422;53.172;6.974;2023-08-17T05:12:28;17.30;99.90
52513;DHT22;38422;53.172;6.974;2023-08-17T05:14:54;17.30;99.90
52513;DHT22;38422;53.172;6.974;2023-08-17T05:17:20;17.30;99.90
52513;DHT22;38422;53.172;6.974;2023-08-17T05:19:45;17.30;99.90
52513;DHT22;38422;53.172;6.974;2023-08-17T05:22:12;17.30;99.90
52513;DHT22;38422;53.172;6.974;2023-08-17T05:24:39;17.30;99.90
52513;DHT22;38422;53.172;6.974;2023-08-17T05:27:05;17.30;99.90
52513;DHT22;38422;53.172;6.974;2023-08-17T05:29:30;17.30;99.90
52513;DHT22;38422;53.172;6.974;2023-08-17T05:31:59;17.30;99.90
52513;DHT22;38422;53.172;6.974;2023-08-17T05:34:25;17.30;99.90
52513;DHT22;38422;53.172;6.974;2023-08-17T05:36:51;17.30;99.90
52513;DHT22;38422;53.172;6.974;2023-08-17T05:39:17;17.30;99.90
52513;DHT22;38422;53.172;6.974;2023-08-17T05:41:43;17.30;99.90
52513;DHT22;38422;53.172;6.974;2023-08-17T05:44:09;17.20;99.90
52513;DHT22;38422;53.172;6.974;2023-08-17T05:46:35;17.20;99.90
52513;DHT22;38422;53.172;6.974;2023-08-17T05:49:01;17.20;99.90
52513;DHT22;38422;53.172;6.974;2023-08-17T05:51:27;17.20;99.90
52513;DHT22;38422;53.172;6.974;2023-08-17T05:53:53;17.20;99.90
52513;DHT22;38422;53.172;6.974;2023-08-17T05:56:18;17.20;99.90
52513;DHT22;38422;53.172;6.974;2023-08-17T05:58:44;17.20;99.90
52513;DHT22;38422;53.172;6.974;2023-08-17T06:01:10;17.30;99.90
52513;DHT22;38422;53.172;6.974;2023-08-17T06:03:37;17.30;99.90
52513;DHT22;38422;53.172;6.974;2023-08-17T06:06:06;17.30;99.90
52513;DHT22;38422;53.172;6.974;2023-08-17T06:08:32;17.30;99.90
52513;DHT22;38422;53.172;6.974;2023-08-17T06:10:57;17.40;99.90
52513;DHT22;38422;53.172;6.974;2023-08-17T06:13:23;17.40;99.90
52513;DHT22;38422;53.172;6.974;2023-08-17T06:15:49;17.50;99.90
52513;DHT22;38422;53.172;6.974;2023-08-17T06:18:15;17.50;99.90
52513;DHT22;38422;53.172;6.974;2023-08-17T06:20:41;17.50;99.90
52513;DHT22;38422;53.172;6.974;2023-08-17T06:23:07;17.60;99.90
52513;DHT22;38422;53.172;6.974;2023-08-17T06:25:33;17.60;99.90
52513;DHT22;38422;53.172;6.974;2023-08-17T06:28:00;17.70;99.90
52513;DHT22;38422;53.172;6.974;2023-08-17T06:30:26;17.70;99.90
52513;DHT22;38422;53.172;6.974;2023-08-17T06:32:52;17.70;99.90
52513;DHT22;38422;53.172;6.974;2023-08-17T06:35:18;17.80;99.90
52513;DHT22;38422;53.172;6.974;2023-08-17T06:37:43;17.90;99.90
52513;DHT22;38422;53.172;6.974;2023-08-17T06:40:09;17.90;99.90
52513;DHT22;38422;53.172;6.974;2023-08-17T06:42:35;17.90;99.90
52513;DHT22;38422;53.172;6.974;2023-08-17T06:45:01;17.90;99.90
52513;DHT22;38422;53.172;6.974;2023-08-17T06:47:28;17.90;99.90
52513;DHT22;38422;53.172;6.974;2023-08-17T06:49:54;18.00;99.90
52513;DHT22;38422;53.172;6.974;2023-08-17T06:52:20;18.00;99.90
52513;DHT22;38422;53.172;6.974;2023-08-17T06:54:46;18.00;99.90
52513;DHT22;38422;53.172;6.974;2023-08-17T06:57:11;18.00;99.90
52513;DHT22;38422;53.172;6.974;2023-08-17T06:59:37;18.00;99.90
52513;DHT22;38422;53.172;6.974;2023-08-17T07:02:03;18.10;99.90
52513;DHT22;38422;53.172;6.974;2023-08-17T07:04:28;18.10;99.90
52513;DHT22;38422;53.172;6.974;2023-08-17T07:06:54;18.10;99.90
52513;DHT22;38422;53.172;6.974;2023-08-17T07:09:20;18.10;99.90
52513;DHT22;38422;53.172;6.974;2023-08-17T07:11:46;18.10;99.90
52513;DHT22;38422;53.172;6.974;2023-08-17T07:14:12;18.10;99.90
52513;DHT22;38422;53.172;6.974;2023-08-17T07:16:38;18.20;99.90
52513;DHT22;38422;53.172;6.974;2023-08-17T07:19:04;18.10;99.90
52513;DHT22;38422;53.172;6.974;2023-08-17T07:21:30;18.20;99.90
52513;DHT22;38422;53.172;6.974;2023-08-17T07:23:55;18.30;99.90
52513;DHT22;38422;53.172;6.974;2023-08-17T07:26:22;18.40;99.90
52513;DHT22;38422;53.172;6.974;2023-08-17T07:28:48;18.50;99.90
52513;DHT22;38422;53.172;6.974;2023-08-17T07:31:14;18.50;99.90
52513;DHT22;38422;53.172;6.974;2023-08-17T07:33:40;18.60;99.90
52513;DHT22;38422;53.172;6.974;2023-08-17T07:36:06;18.60;99.90
52513;DHT22;38422;53.172;6.974;2023-08-17T07:38:32;18.70;99.90
52513;DHT22;38422;53.172;6.974;2023-08-17T07:40:58;18.70;99.90
52513;DHT22;38422;53.172;6.974;2023-08-17T07:43:24;18.70;99.90
52513;DHT22;38422;53.172;6.974;2023-08-17T07:45:54;18.80;99.90
52513;DHT22;38422;53.172;6.974;2023-08-17T07:48:20;18.80;99.90
52513;DHT22;38422;53.172;6.974;2023-08-17T07:50:52;18.90;99.90
52513;DHT22;38422;53.172;6.974;2023-08-17T07:53:19;19.00;99.90
52513;DHT22;38422;53.172;6.974;2023-08-17T07:55:45;19.00;99.90
52513;DHT22;38422;53.172;6.974;2023-08-17T07:58:11;19.00;99.90
52513;DHT22;38422;53.172;6.974;2023-08-17T08:00:37;19.00;99.90
52513;DHT22;38422;53.172;6.974;2023-08-17T08:03:03;19.00;99.90
52513;DHT22;38422;53.172;6.974;2023-08-17T08:05:29;19.00;99.90
52513;DHT22;38422;53.172;6.974;2023-08-17T08:07:54;19.00;99.90
52513;DHT22;38422;53.172;6.974;2023-08-17T08:10:20;18.90;99.90
52513;DHT22;38422;53.172;6.974;2023-08-17T08:12:46;18.80;99.90
52513;DHT22;38422;53.172;6.974;2023-08-17T08:15:11;18.70;99.90
52513;DHT22;38422;53.172;6.974;2023-08-17T08:17:37;18.70;99.90
52513;DHT22;38422;53.172;6.974;2023-08-17T08:20:04;18.70;99.90
52513;DHT22;38422;53.172;6.974;2023-08-17T08:22:29;18.70;99.90
52513;DHT22;38422;53.172;6.974;2023-08-17T08:24:55;18.70;99.90
52513;DHT22;38422;53.172;6.974;2023-08-17T08:27:21;18.70;99.90
52513;DHT22;38422;53.172;6.974;2023-08-17T08:29:47;18.70;99.90
52513;DHT22;38422;53.172;6.974;2023-08-17T08:32:13;18.80;99.90
52513;DHT22;38422;53.172;6.974;2023-08-17T08:34:38;18.90;99.90
52513;DHT22;38422;53.172;6.974;2023-08-17T08:37:04;18.90;99.90
52513;DHT22;38422;53.172;6.974;2023-08-17T08:39:30;19.00;99.90
52513;DHT22;38422;53.172;6.974;2023-08-17T08:41:55;19.10;99.90
52513;DHT22;38422;53.172;6.974;2023-08-17T08:44:22;19.20;99.90
52513;DHT22;38422;53.172;6.974;2023-08-17T08:46:48;19.40;99.90
52513;DHT22;38422;53.172;6.974;2023-08-17T08:49:19;19.70;99.90
52513;DHT22;38422;53.172;6.974;2023-08-17T08:51:50;19.90;99.90
52513;DHT22;38422;53.172;6.974;2023-08-17T08:54:21;20.00;99.90
52513;DHT22;38422;53.172;6.974;2023-08-17T08:56:55;20.00;99.90
52513;DHT22;38422;53.172;6.974;2023-08-17T08:59:24;20.00;99.90
52513;DHT22;38422;53.172;6.974;2023-08-17T09:01:52;20.00;99.90
52513;DHT22;38422;53.172;6.974;2023-08-17T09:04:18;19.90;99.90
52513;DHT22;38422;53.172;6.974;2023-08-17T09:06:45;19.90;99.90
52513;DHT22;38422;53.172;6.974;2023-08-17T09:09:11;19.80;99.90
52513;DHT22;38422;53.172;6.974;2023-08-17T09:11:40;19.80;99.90
52513;DHT22;38422;53.172;6.974;2023-08-17T09:14:06;19.80;99.90
52513;DHT22;38422;53.172;6.974;2023-08-17T09:16:32;19.80;99.90
52513;DHT22;38422;53.172;6.974;2023-08-17T09:18:58;19.80;99.90
52513;DHT22;38422;53.172;6.974;2023-08-17T09:21:25;19.90;99.90
52513;DHT22;38422;53.172;6.974;2023-08-17T09:23:55;19.80;99.90
52513;DHT22;38422;53.172;6.974;2023-08-17T09:26:21;19.80;99.90
52513;DHT22;38422;53.172;6.974;2023-08-17T09:28:49;19.90;99.90
52513;DHT22;38422;53.172;6.974;2023-08-17T09:31:21;19.90;99.90
52513;DHT22;38422;53.172;6.974;2023-08-17T09:33:50;19.90;99.90
52513;DHT22;38422;53.172;6.974;2023-08-17T09:36:20;20.00;99.90
52513;DHT22;38422;53.172;6.974;2023-08-17T09:38:48;20.10;99.90
52513;DHT22;38422;53.172;6.974;2023-08-17T09:41:20;20.10;99.90
52513;DHT22;38422;53.172;6.974;2023-08-17T09:43:46;20.20;99.90
52513;DHT22;38422;53.172;6.974;2023-08-17T09:46:12;20.30;99.90
52513;DHT22;38422;53.172;6.974;2023-08-17T09:48:38;20.40;99.90
52513;DHT22;38422;53.172;6.974;2023-08-17T09:51:06;20.40;99.90
52513;DHT22;38422;53.172;6.974;2023-08-17T09:53:35;20.50;99.90
52513;DHT22;38422;53.172;6.974;2023-08-17T09:56:02;20.50;99.90
52513;DHT22;38422;53.172;6.974;2023-08-17T09:58:29;20.60;99.90
52513;DHT22;38422;53.172;6.974;2023-08-17T10:00:55;20.70;99.90
52513;DHT22;38422;53.172;6.974;2023-08-17T10:03:22;20.80;99.90
52513;DHT22;38422;53.172;6.974;2023-08-17T10:05:58;20.80;99.90
52513;DHT22;38422;53.172;6.974;2023-08-17T10:08:25;21.00;99.90
52513;DHT22;38422;53.172;6.974;2023-08-17T10:10:54;21.30;99.90
52513;DHT22;38422;53.172;6.974;2023-08-17T10:13:46;21.70;99.90
52513;DHT22;38422;53.172;6.974;2023-08-17T10:16:26;22.20;99.90
52513;DHT22;38422;53.172;6.974;2023-08-17T10:21:56;22.60;99.90
52513;DHT22;38422;53.172;6.974;2023-08-17T10:24:26;22.70;99.90
52513;DHT22;38422;53.172;6.974;2023-08-17T10:26:52;22.80;99.90
52513;DHT22;38422;53.172;6.974;2023-08-17T10:29:18;22.80;99.90
52513;DHT22;38422;53.172;6.974;2023-08-17T10:31:45;22.70;99.90
52513;DHT22;38422;53.172;6.974;2023-08-17T10:34:13;22.70;99.90
52513;DHT22;38422;53.172;6.974;2023-08-17T10:36:39;22.80;99.90
52513;DHT22;38422;53.172;6.974;2023-08-17T10:39:18;23.00;99.90
52513;DHT22;38422;53.172;6.974;2023-08-17T10:41:49;23.30;99.90
52513;DHT22;38422;53.172;6.974;2023-08-17T10:45:01;23.50;99.90
52513;DHT22;38422;53.172;6.974;2023-08-17T10:50:01;23.70;99.90
52513;DHT22;38422;53.172;6.974;2023-08-17T10:52:33;23.60;99.90
52513;DHT22;38422;53.172;6.974;2023-08-17T10:55:08;23.60;99.90
52513;DHT22;38422;53.172;6.974;2023-08-17T10:57:37;23.40;99.90
52513;DHT22;38422;53.172;6.974;2023-08-17T11:02:39;23.50;99.90
52513;DHT22;38422;53.172;6.974;2023-08-17T11:05:05;23.50;99.90
52513;DHT22;38422;53.172;6.974;2023-08-17T11:07:44;23.40;99.90
52513;DHT22;38422;53.172;6.974;2023-08-17T11:12:45;23.50;99.90
52513;DHT22;38422;53.172;6.974;2023-08-17T11:15:11;23.70;99.90
52513;DHT22;38422;53.172;6.974;2023-08-17T11:17:36;23.80;99.90
52513;DHT22;38422;53.172;6.974;2023-08-17T11:20:03;23.80;99.90
52513;DHT22;38422;53.172;6.974;2023-08-17T11:22:30;23.80;99.90
52513;DHT22;38422;53.172;6.974;2023-08-17T11:24:55;23.90;99.90
52513;DHT22;38422;53.172;6.974;2023-08-17T11:27:21;24.00;99.90
52513;DHT22;38422;53.172;6.974;2023-08-17T11:29:47;24.20;99.90
52513;DHT22;38422;53.172;6.974;2023-08-17T11:32:16;24.40;99.90
52513;DHT22;38422;53.172;6.974;2023-08-17T11:34:43;24.40;99.90
52513;DHT22;38422;53.172;6.974;2023-08-17T11:37:11;24.30;99.90
52513;DHT22;38422;53.172;6.974;2023-08-17T11:39:37;24.10;99.90
52513;DHT22;38422;53.172;6.974;2023-08-17T11:42:03;24.00;99.90
52513;DHT22;38422;53.172;6.974;2023-08-17T11:44:29;24.10;99.90
52513;DHT22;38422;53.172;6.974;2023-08-17T11:46:55;24.20;99.90
52513;DHT22;38422;53.172;6.974;2023-08-17T11:49:21;24.30;99.90
52513;DHT22;38422;53.172;6.974;2023-08-17T11:51:51;24.30;99.90
52513;DHT22;38422;53.172;6.974;2023-08-17T11:54:16;24.50;99.90
52513;DHT22;38422;53.172;6.974;2023-08-17T11:56:42;24.70;99.90
52513;DHT22;38422;53.172;6.974;2023-08-17T11:59:09;24.80;99.90
52513;DHT22;38422;53.172;6.974;2023-08-17T12:01:37;24.70;99.90
52513;DHT22;38422;53.172;6.974;2023-08-17T12:04:06;24.70;99.90
52513;DHT22;38422;53.172;6.974;2023-08-17T12:06:32;24.60;99.90
52513;DHT22;38422;53.172;6.974;2023-08-17T12:08:58;24.60;99.90
52513;DHT22;38422;53.172;6.974;2023-08-17T12:11:24;24.60;99.90
52513;DHT22;38422;53.172;6.974;2023-08-17T12:13:52;24.70;99.90
52513;DHT22;38422;53.172;6.974;2023-08-17T12:16:22;24.80;99.90
52513;DHT22;38422;53.172;6.974;2023-08-17T12:18:48;24.80;99.90
52513;DHT22;38422;53.172;6.974;2023-08-17T12:21:14;24.90;99.90
52513;DHT22;38422;53.172;6.974;2023-08-17T12:23:41;25.00;99.90
52513;DHT22;38422;53.172;6.974;2023-08-17T12:26:07;24.80;99.90
52513;DHT22;38422;53.172;6.974;2023-08-17T12:28:33;24.80;99.90
52513;DHT22;38422;53.172;6.974;2023-08-17T12:31:02;24.80;99.90
52513;DHT22;38422;53.172;6.974;2023-08-17T12:33:28;24.60;99.90
52513;DHT22;38422;53.172;6.974;2023-08-17T12:35:55;24.60;99.90
52513;DHT22;38422;53.172;6.974;2023-08-17T12:38:23;24.70;99.90
52513;DHT22;38422;53.172;6.974;2023-08-17T12:40:49;24.80;99.90
52513;DHT22;38422;53.172;6.974;2023-08-17T12:43:14;24.60;99.90
52513;DHT22;38422;53.172;6.974;2023-08-17T12:45:40;24.50;99.90
52513;DHT22;38422;53.172;6.974;2023-08-17T12:48:06;24.30;99.90
52513;DHT22;38422;53.172;6.974;2023-08-17T12:50:32;24.10;99.90
52513;DHT22;38422;53.172;6.974;2023-08-17T12:52:57;24.00;99.90
52513;DHT22;38422;53.172;6.974;2023-08-17T12:55:23;23.80;99.90
52513;DHT22;38422;53.172;6.974;2023-08-17T12:57:49;23.70;99.90
52513;DHT22;38422;53.172;6.974;2023-08-17T13:00:15;23.60;99.90
52513;DHT22;38422;53.172;6.974;2023-08-17T13:02:41;23.50;99.90
52513;DHT22;38422;53.172;6.974;2023-08-17T13:05:06;23.40;99.90
52513;DHT22;38422;53.172;6.974;2023-08-17T13:07:32;23.30;99.90
52513;DHT22;38422;53.172;6.974;2023-08-17T13:09:58;23.20;99.90
52513;DHT22;38422;53.172;6.974;2023-08-17T13:12:23;23.10;99.90
52513;DHT22;38422;53.172;6.974;2023-08-17T13:14:49;23.00;99.90
52513;DHT22;38422;53.172;6.974;2023-08-17T13:17:15;23.00;99.90
52513;DHT22;38422;53.172;6.974;2023-08-17T13:19:42;22.90;99.90
52513;DHT22;38422;53.172;6.974;2023-08-17T13:22:08;22.80;99.90
52513;DHT22;38422;53.172;6.974;2023-08-17T13:24:34;22.80;99.90
52513;DHT22;38422;53.172;6.974;2023-08-17T13:26:59;22.70;99.90
52513;DHT22;38422;53.172;6.974;2023-08-17T13:29:25;22.70;99.90
52513;DHT22;38422;53.172;6.974;2023-08-17T13:31:51;22.70;99.90
52513;DHT22;38422;53.172;6.974;2023-08-17T13:34:17;22.60;99.90
52513;DHT22;38422;53.172;6.974;2023-08-17T13:36:42;22.60;99.90
52513;DHT22;38422;53.172;6.974;2023-08-17T13:39:08;22.60;99.90
52513;DHT22;38422;53.172;6.974;2023-08-17T13:41:33;22.50;99.90
52513;DHT22;38422;53.172;6.974;2023-08-17T13:43:59;22.50;99.90
52513;DHT22;38422;53.172;6.974;2023-08-17T13:46:26;22.50;99.90
52513;DHT22;38422;53.172;6.974;2023-08-17T13:48:52;22.40;99.90
52513;DHT22;38422;53.172;6.974;2023-08-17T13:51:19;22.40;99.90
52513;DHT22;38422;53.172;6.974;2023-08-17T13:53:45;22.40;99.90
52513;DHT22;38422;53.172;6.974;2023-08-17T13:56:10;22.30;99.90
52513;DHT22;38422;53.172;6.974;2023-08-17T13:58:36;22.30;99.90
52513;DHT22;38422;53.172;6.974;2023-08-17T14:01:02;22.30;99.90
52513;DHT22;38422;53.172;6.974;2023-08-17T14:03:28;22.20;99.90
52513;DHT22;38422;53.172;6.974;2023-08-17T14:05:53;22.20;99.90
52513;DHT22;38422;53.172;6.974;2023-08-17T14:08:20;22.20;99.90
52513;DHT22;38422;53.172;6.974;2023-08-17T14:10:45;22.10;99.90
52513;DHT22;38422;53.172;6.974;2023-08-17T14:13:11;22.10;99.90
52513;DHT22;38422;53.172;6.974;2023-08-17T14:15:37;22.10;99.90
52513;DHT22;38422;53.172;6.974;2023-08-17T14:18:03;22.10;99.90
52513;DHT22;38422;53.172;6.974;2023-08-17T14:20:29;22.10;99.90
52513;DHT22;38422;53.172;6.974;2023-08-17T14:22:55;22.10;99.90
52513;DHT22;38422;53.172;6.974;2023-08-17T14:25:21;22.10;99.90
52513;DHT22;38422;53.172;6.974;2023-08-17T14:27:47;22.00;99.90
52513;DHT22;38422;53.172;6.974;2023-08-17T14:30:12;22.00;99.90
52513;DHT22;38422;53.172;6.974;2023-08-17T14:32:38;22.00;99.90
52513;DHT22;38422;53.172;6.974;2023-08-17T14:35:04;22.00;99.90
52513;DHT22;38422;53.172;6.974;2023-08-17T14:37:30;22.10;99.90
52513;DHT22;38422;53.172;6.974;2023-08-17T14:39:56;22.00;99.90
52513;DHT22;38422;53.172;6.974;2023-08-17T14:42:21;22.00;99.90
52513;DHT22;38422;53.172;6.974;2023-08-17T14:44:48;22.00;99.90
52513;DHT22;38422;53.172;6.974;2023-08-17T14:47:14;22.00;99.90
52513;DHT22;38422;53.172;6.974;2023-08-17T14:49:40;22.10;99.90
52513;DHT22;38422;53.172;6.974;2023-08-17T14:52:05;22.00;99.90
52513;DHT22;38422;53.172;6.974;2023-08-17T14:54:31;22.00;99.90
52513;DHT22;38422;53.172;6.974;2023-08-17T14:57:00;22.00;99.90
52513;DHT22;38422;53.172;6.974;2023-08-17T14:59:25;22.00;99.90
52513;DHT22;38422;53.172;6.974;2023-08-17T15:01:51;21.90;99.90
52513;DHT22;38422;53.172;6.974;2023-08-17T15:04:18;21.90;99.90
52513;DHT22;38422;53.172;6.974;2023-08-17T15:06:43;21.90;99.90
52513;DHT22;38422;53.172;6.974;2023-08-17T15:09:09;21.80;99.90
52513;DHT22;38422;53.172;6.974;2023-08-17T15:11:35;21.70;99.90
52513;DHT22;38422;53.172;6.974;2023-08-17T15:14:01;21.70;99.90
52513;DHT22;38422;53.172;6.974;2023-08-17T15:16:27;21.80;99.90
52513;DHT22;38422;53.172;6.974;2023-08-17T15:18:53;21.80;99.90
52513;DHT22;38422;53.172;6.974;2023-08-17T15:21:19;21.90;99.90
52513;DHT22;38422;53.172;6.974;2023-08-17T15:23:45;21.90;99.90
52513;DHT22;38422;53.172;6.974;2023-08-17T15:26:11;21.90;99.90
52513;DHT22;38422;53.172;6.974;2023-08-17T15:28:38;21.90;99.90
52513;DHT22;38422;53.172;6.974;2023-08-17T15:31:04;21.80;99.90
52513;DHT22;38422;53.172;6.974;2023-08-17T15:33:31;21.80;99.90
52513;DHT22;38422;53.172;6.974;2023-08-17T15:35:57;21.70;99.90
52513;DHT22;38422;53.172;6.974;2023-08-17T15:38:24;21.70;99.90